sensor_id;sensor_type;location;lat;lon;timestamp;pressure;altitude;pressure_sealevel;temperature;humidity
22389;BME280;11362;48.102;11.620;2024-02-04T00:01:32;96136.41;;;25.00;33.11
22389;BME280;11362;48.102;11.620;2024-02-04T00:03:57;96154.25;;;24.99;33.03
22389;BME280;11362;48.102;11.620;2024-02-04T00:06:22;96155.84;;;25.00;32.99
22389;BME280;11362;48.102;11.620;2024-02-04T00:08:48;96157.44;;;24.98;33.07
22389;BME280;11362;48.102;11.620;2024-02-04T00:11:13;96158.63;;;25.00;33.04
22389;BME280;11362;48.102;11.620;2024-02-04T00:13:38;96150.72;;;24.95;33.28
22389;BME280;11362;48.102;11.620;2024-02-04T00:16:04;96160.22;;;24.98;33.20
22389;BME280;11362;48.102;11.620;2024-02-04T00:18:29;96156.28;;;24.95;32.75
22389;BME280;11362;48.102;11.620;2024-02-04T00:20:55;96150.31;;;24.97;33.16
22389;BME280;11362;48.102;11.620;2024-02-04T00:23:20;96154.25;;;24.96;32.94
22389;BME280;11362;48.102;11.620;2024-02-04T00:25:46;96151.47;;;24.96;32.90
22389;BME280;11362;48.102;11.620;2024-02-04T00:28:11;96155.06;;;24.96;32.79
22389;BME280;11362;48.102;11.620;2024-02-04T00:30:36;96151.09;;;24.97;32.91
22389;BME280;11362;48.102;11.620;2024-02-04T00:33:02;96150.31;;;24.97;33.05
22389;BME280;11362;48.102;11.620;2024-02-04T00:35:27;96151.09;;;24.97;33.01
22389;BME280;11362;48.102;11.620;2024-02-04T00:37:53;96143.94;;;24.96;33.04
22389;BME280;11362;48.102;11.620;2024-02-04T00:40:18;96139.22;;;24.93;32.97
22389;BME280;11362;48.102;11.620;2024-02-04T00:42:43;96136.81;;;24.95;32.92
22389;BME280;11362;48.102;11.620;2024-02-04T00:45:09;96126.47;;;24.96;32.95
22389;BME280;11362;48.102;11.620;2024-02-04T00:47:34;96122.91;;;24.95;33.04
22389;BME280;11362;48.102;11.620;2024-02-04T00:49:59;96118.94;;;24.96;32.84
22389;BME280;11362;48.102;11.620;2024-02-04T00:52:25;96118.97;;;24.89;32.99
22389;BME280;11362;48.102;11.620;2024-02-04T00:54:50;96105.44;;;24.91;32.99
22389;BME280;11362;48.102;11.620;2024-02-04T00:57:15;96106.25;;;24.92;33.06
22389;BME280;11362;48.102;11.620;2024-02-04T00:59:40;96105.84;;;24.93;32.70
22389;BME280;11362;48.102;11.620;2024-02-04T01:02:06;96113.41;;;24.93;32.65
22389;BME280;11362;48.102;11.620;2024-02-04T01:04:31;96120.94;;;24.92;33.14
22389;BME280;11362;48.102;11.620;2024-02-04T01:06:56;96113.78;;;24.91;33.03
22389;BME280;11362;48.102;11.620;2024-02-04T01:09:22;96113.78;;;24.91;32.75
22389;BME280;11362;48.102;11.620;2024-02-04T01:11:47;96099.88;;;24.91;32.95
22389;BME280;11362;48.102;11.620;2024-02-04T01:14:12;96104.25;;;24.92;32.92
22389;BME280;11362;48.102;11.620;2024-02-04T01:16:38;96082.00;;;24.92;32.81
22389;BME280;11362;48.102;11.620;2024-02-04T01:19:03;96082.84;;;24.89;32.73
22389;BME280;11362;48.102;11.620;2024-02-04T01:21:28;96101.47;;;24.92;32.83
22389;BME280;11362;48.102;11.620;2024-02-04T01:23:53;96093.97;;;24.89;32.97
22389;BME280;11362;48.102;11.620;2024-02-04T01:26:19;96095.16;;;24.88;33.01
22389;BME280;11362;48.102;11.620;2024-02-04T01:28:44;96101.09;;;24.90;32.76
22389;BME280;11362;48.102;11.620;2024-02-04T01:31:09;96086.00;;;24.91;32.87
22389;BME280;11362;48.102;11.620;2024-02-04T01:33:34;96085.22;;;24.91;32.59
22389;BME280;11362;48.102;11.620;2024-02-04T01:36:00;96075.69;;;24.88;32.88
22389;BME280;11362;48.102;11.620;2024-02-04T01:38:25;96083.63;;;24.93;32.99
22389;BME280;11362;48.102;11.620;2024-02-04T01:40:50;96090.78;;;24.91;32.83
22389;BME280;11362;48.102;11.620;2024-02-04T01:43:16;96081.25;;;24.92;32.92
22389;BME280;11362;48.102;11.620;2024-02-04T01:45:41;96075.69;;;24.92;32.77
22389;BME280;11362;48.102;11.620;2024-02-04T01:48:06;96069.31;;;24.91;32.77
22389;BME280;11362;48.102;11.620;2024-02-04T01:50:32;96077.25;;;24.93;32.81
22389;BME280;11362;48.102;11.620;2024-02-04T01:52:57;96087.19;;;24.90;33.00
22389;BME280;11362;48.102;11.620;2024-02-04T01:55:23;96102.69;;;24.88;32.88
22389;BME280;11362;48.102;11.620;2024-02-04T01:57:48;96114.63;;;24.88;32.91
22389;BME280;11362;48.102;11.620;2024-02-04T02:00:14;96116.19;;;24.89;32.98
22389;BME280;11362;48.102;11.620;2024-02-04T02:02:40;96123.31;;;24.90;32.76
22389;BME280;11362;48.102;11.620;2024-02-04T02:05:06;96116.19;;;24.89;32.78
22389;BME280;11362;48.102;11.620;2024-02-04T02:07:32;96107.09;;;24.85;32.87
22389;BME280;11362;48.102;11.620;2024-02-04T02:09:57;96110.66;;;24.86;32.83
22389;BME280;11362;48.102;11.620;2024-02-04T02:12:24;96109.88;;;24.85;33.00
22389;BME280;11362;48.102;11.620;2024-02-04T02:14:58;96103.09;;;24.90;33.10
22389;BME280;11362;48.102;11.620;2024-02-04T02:17:31;96105.88;;;24.90;33.07
22389;BME280;11362;48.102;11.620;2024-02-04T02:20:11;96087.63;;;24.89;32.84
22389;BME280;11362;48.102;11.620;2024-02-04T02:22:50;96079.28;;;24.89;32.91
22389;BME280;11362;48.102;11.620;2024-02-04T02:25:22;96082.84;;;24.89;32.97
22389;BME280;11362;48.102;11.620;2024-02-04T02:27:49;96087.56;;;24.92;33.00
22389;BME280;11362;48.102;11.620;2024-02-04T02:30:15;96078.09;;;24.86;32.86
22389;BME280;11362;48.102;11.620;2024-02-04T02:32:40;96072.56;;;24.86;33.05
22389;BME280;11362;48.102;11.620;2024-02-04T02:35:06;96063.81;;;24.84;32.95
22389;BME280;11362;48.102;11.620;2024-02-04T02:37:46;96076.53;;;24.85;32.94
22389;BME280;11362;48.102;11.620;2024-02-04T02:40:34;96079.72;;;24.84;33.07
22389;BME280;11362;48.102;11.620;2024-02-04T02:43:03;96096.38;;;24.84;33.17
22389;BME280;11362;48.102;11.620;2024-02-04T02:45:29;96081.28;;;24.85;33.00
22389;BME280;11362;48.102;11.620;2024-02-04T02:47:56;96088.41;;;24.86;33.00
22389;BME280;11362;48.102;11.620;2024-02-04T02:50:21;96070.16;;;24.85;33.04
22389;BME280;11362;48.102;11.620;2024-02-04T02:52:47;96082.88;;;24.82;33.07
22389;BME280;11362;48.102;11.620;2024-02-04T02:55:12;96091.59;;;24.84;32.91
22389;BME280;11362;48.102;11.620;2024-02-04T02:57:37;96086.03;;;24.84;32.92
22389;BME280;11362;48.102;11.620;2024-02-04T03:00:03;96072.56;;;24.86;32.86
22389;BME280;11362;48.102;11.620;2024-02-04T03:02:28;96076.09;;;24.87;33.09
22389;BME280;11362;48.102;11.620;2024-02-04T03:04:54;96079.31;;;24.85;32.80
22389;BME280;11362;48.102;11.620;2024-02-04T03:07:19;96077.31;;;24.86;33.18
22389;BME280;11362;48.102;11.620;2024-02-04T03:09:45;96092.00;;;24.86;32.93
22389;BME280;11362;48.102;11.620;2024-02-04T03:12:10;96087.66;;;24.85;32.83
22389;BME280;11362;48.102;11.620;2024-02-04T03:14:35;96098.75;;;24.85;33.02
22389;BME280;11362;48.102;11.620;2024-02-04T03:17:00;96100.75;;;24.81;32.83
22389;BME280;11362;48.102;11.620;2024-02-04T03:19:26;96100.75;;;24.81;33.05
22389;BME280;11362;48.102;11.620;2024-02-04T03:21:51;96105.13;;;24.82;32.73
22389;BME280;11362;48.102;11.620;2024-02-04T03:24:16;96107.88;;;24.82;32.98
22389;BME280;11362;48.102;11.620;2024-02-04T03:26:42;96103.53;;;24.81;33.02
22389;BME280;11362;48.102;11.620;2024-02-04T03:29:07;96103.53;;;24.81;32.73
22389;BME280;11362;48.102;11.620;2024-02-04T03:31:33;96090.84;;;24.80;32.79
22389;BME280;11362;48.102;11.620;2024-02-04T03:33:58;96092.81;;;24.80;33.03
22389;BME280;11362;48.102;11.620;2024-02-04T03:36:24;96099.19;;;24.80;32.78
22389;BME280;11362;48.102;11.620;2024-02-04T03:38:52;96098.38;;;24.80;32.95
22389;BME280;11362;48.102;11.620;2024-02-04T03:41:17;96096.41;;;24.80;32.94
22389;BME280;11362;48.102;11.620;2024-02-04T03:43:43;96104.72;;;24.80;32.99
22389;BME280;11362;48.102;11.620;2024-02-04T03:46:12;96107.88;;;24.82;32.91
22389;BME280;11362;48.102;11.620;2024-02-04T03:48:38;96101.94;;;24.84;32.74
22389;BME280;11362;48.102;11.620;2024-02-04T03:51:03;96094.38;;;24.84;32.73
22389;BME280;11362;48.102;11.620;2024-02-04T03:53:28;96094.81;;;24.83;32.86
22389;BME280;11362;48.102;11.620;2024-02-04T03:55:54;96083.69;;;24.83;32.92
22389;BME280;11362;48.102;11.620;2024-02-04T03:58:20;96097.56;;;24.83;32.73
22389;BME280;11362;48.102;11.620;2024-02-04T04:00:45;96094.41;;;24.81;32.77
22389;BME280;11362;48.102;11.620;2024-02-04T04:03:10;96095.19;;;24.81;32.66
22389;BME280;11362;48.102;11.620;2024-02-04T04:05:36;96099.16;;;24.84;32.59
22389;BME280;11362;48.102;11.620;2024-02-04T04:08:01;96093.22;;;24.82;32.98
22389;BME280;11362;48.102;11.620;2024-02-04T04:10:26;96098.34;;;24.83;32.90
22389;BME280;11362;48.102;11.620;2024-02-04T04:12:51;96099.16;;;24.84;32.83
22389;BME280;11362;48.102;11.620;2024-02-04T04:15:17;96101.13;;;24.83;32.71
22389;BME280;11362;48.102;11.620;2024-02-04T04:17:42;96087.66;;;24.85;32.98
22389;BME280;11362;48.102;11.620;2024-02-04T04:20:08;96085.25;;;24.87;32.75
22389;BME280;11362;48.102;11.620;2024-02-04T04:22:33;96073.31;;;24.87;32.96
22389;BME280;11362;48.102;11.620;2024-02-04T04:24:58;96075.31;;;24.86;32.80
22389;BME280;11362;48.102;11.620;2024-02-04T04:27:23;96082.47;;;24.87;33.03
22389;BME280;11362;48.102;11.620;2024-02-04T04:29:49;96093.19;;;24.85;32.88
22389;BME280;11362;48.102;11.620;2024-02-04T04:32:14;96088.41;;;24.86;32.90
22389;BME280;11362;48.102;11.620;2024-02-04T04:34:39;96087.66;;;24.85;32.80
22389;BME280;11362;48.102;11.620;2024-02-04T04:37:05;96084.88;;;24.82;32.56
22389;BME280;11362;48.102;11.620;2024-02-04T04:39:30;96081.25;;;24.88;32.91
22389;BME280;11362;48.102;11.620;2024-02-04T04:41:56;96084.03;;;24.88;32.69
22389;BME280;11362;48.102;11.620;2024-02-04T04:44:21;96084.41;;;24.90;32.45
22389;BME280;11362;48.102;11.620;2024-02-04T04:46:47;96099.50;;;24.89;32.75
22389;BME280;11362;48.102;11.620;2024-02-04T04:49:12;96103.50;;;24.88;32.68
22389;BME280;11362;48.102;11.620;2024-02-04T04:51:37;96090.00;;;24.87;32.77
22389;BME280;11362;48.102;11.620;2024-02-04T04:54:03;96097.56;;;24.86;32.54
22389;BME280;11362;48.102;11.620;2024-02-04T04:56:28;96089.22;;;24.86;32.62
22389;BME280;11362;48.102;11.620;2024-02-04T04:58:53;96085.25;;;24.87;32.54
22389;BME280;11362;48.102;11.620;2024-02-04T05:01:18;96092.38;;;24.88;32.38
22389;BME280;11362;48.102;11.620;2024-02-04T05:03:44;96094.34;;;24.88;32.61
22389;BME280;11362;48.102;11.620;2024-02-04T05:06:09;96086.81;;;24.88;32.61
22389;BME280;11362;48.102;11.620;2024-02-04T05:08:34;96091.56;;;24.88;32.52
22389;BME280;11362;48.102;11.620;2024-02-04T05:11:00;96100.34;;;24.86;32.53
22389;BME280;11362;48.102;11.620;2024-02-04T05:13:25;96094.38;;;24.84;32.66
22389;BME280;11362;48.102;11.620;2024-02-04T05:15:50;96094.38;;;24.84;32.60
22389;BME280;11362;48.102;11.620;2024-02-04T05:18:15;96093.19;;;24.85;32.46
22389;BME280;11362;48.102;11.620;2024-02-04T05:20:41;96070.97;;;24.85;32.49
22389;BME280;11362;48.102;11.620;2024-02-04T05:23:06;96059.84;;;24.85;32.54
22389;BME280;11362;48.102;11.620;2024-02-04T05:25:32;96059.84;;;24.85;32.66
22389;BME280;11362;48.102;11.620;2024-02-04T05:27:57;96049.50;;;24.86;32.62
22389;BME280;11362;48.102;11.620;2024-02-04T05:30:22;96059.84;;;24.85;32.48
22389;BME280;11362;48.102;11.620;2024-02-04T05:32:47;96070.97;;;24.85;32.81
22389;BME280;11362;48.102;11.620;2024-02-04T05:35:13;96066.19;;;24.86;32.56
22389;BME280;11362;48.102;11.620;2024-02-04T05:37:38;96074.91;;;24.84;32.53
22389;BME280;11362;48.102;11.620;2024-02-04T05:40:04;96084.44;;;24.87;32.55
22389;BME280;11362;48.102;11.620;2024-02-04T05:42:29;96075.69;;;24.88;32.49
22389;BME280;11362;48.102;11.620;2024-02-04T05:44:55;96075.69;;;24.88;32.47
22389;BME280;11362;48.102;11.620;2024-02-04T05:47:20;96072.94;;;24.88;32.46
22389;BME280;11362;48.102;11.620;2024-02-04T05:49:45;96064.59;;;24.88;32.46
22389;BME280;11362;48.102;11.620;2024-02-04T05:52:12;96059.03;;;24.88;32.34
22389;BME280;11362;48.102;11.620;2024-02-04T05:54:38;96059.84;;;24.89;32.39
22389;BME280;11362;48.102;11.620;2024-02-04T05:57:03;96062.22;;;24.87;32.40
22389;BME280;11362;48.102;11.620;2024-02-04T05:59:29;96057.44;;;24.87;32.54
22389;BME280;11362;48.102;11.620;2024-02-04T06:01:54;96063.78;;;24.88;32.42
22389;BME280;11362;48.102;11.620;2024-02-04T06:04:19;96067.00;;;24.86;32.40
22389;BME280;11362;48.102;11.620;2024-02-04T06:06:45;96075.31;;;24.86;32.41
22389;BME280;11362;48.102;11.620;2024-02-04T06:09:11;96068.94;;;24.89;32.11
22389;BME280;11362;48.102;11.620;2024-02-04T06:11:36;96068.56;;;24.87;32.46
22389;BME280;11362;48.102;11.620;2024-02-04T06:14:01;96069.34;;;24.88;32.26
22389;BME280;11362;48.102;11.620;2024-02-04T06:16:27;96076.91;;;24.87;32.34
22389;BME280;11362;48.102;11.620;2024-02-04T06:18:52;96069.34;;;24.88;32.15
22389;BME280;11362;48.102;11.620;2024-02-04T06:21:17;96067.00;;;24.86;32.17
22389;BME280;11362;48.102;11.620;2024-02-04T06:23:43;96065.81;;;24.84;32.15
22389;BME280;11362;48.102;11.620;2024-02-04T06:26:08;96070.97;;;24.85;32.34
22389;BME280;11362;48.102;11.620;2024-02-04T06:28:33;96065.81;;;24.84;32.33
22389;BME280;11362;48.102;11.620;2024-02-04T06:30:59;96079.72;;;24.84;32.40
22389;BME280;11362;48.102;11.620;2024-02-04T06:33:25;96079.72;;;24.84;32.23
22389;BME280;11362;48.102;11.620;2024-02-04T06:35:50;96082.09;;;24.85;32.11
22389;BME280;11362;48.102;11.620;2024-02-04T06:38:16;96079.31;;;24.85;32.46
22389;BME280;11362;48.102;11.620;2024-02-04T06:40:41;96067.38;;;24.85;32.21
22389;BME280;11362;48.102;11.620;2024-02-04T06:43:06;96067.00;;;24.86;32.21
22389;BME280;11362;48.102;11.620;2024-02-04T06:45:31;96071.75;;;24.86;32.41
22389;BME280;11362;48.102;11.620;2024-02-04T06:47:57;96078.13;;;24.83;32.23
22389;BME280;11362;48.102;11.620;2024-02-04T06:50:22;96089.25;;;24.83;32.20
22389;BME280;11362;48.102;11.620;2024-02-04T06:52:47;96088.41;;;24.86;32.35
22389;BME280;11362;48.102;11.620;2024-02-04T06:55:13;96087.66;;;24.85;32.57
22389;BME280;11362;48.102;11.620;2024-02-04T06:57:38;96100.72;;;24.88;32.55
22389;BME280;11362;48.102;11.620;2024-02-04T07:00:04;96098.75;;;24.89;32.54
22389;BME280;11362;48.102;11.620;2024-02-04T07:02:30;96082.06;;;24.89;32.83
22389;BME280;11362;48.102;11.620;2024-02-04T07:04:55;96092.38;;;24.88;32.80
22389;BME280;11362;48.102;11.620;2024-02-04T07:07:20;96095.56;;;24.87;32.95
22389;BME280;11362;48.102;11.620;2024-02-04T07:09:46;96101.91;;;24.91;33.24
22389;BME280;11362;48.102;11.620;2024-02-04T07:12:11;96092.34;;;24.92;33.43
22389;BME280;11362;48.102;11.620;2024-02-04T07:14:37;96111.00;;;24.91;33.49
22389;BME280;11362;48.102;11.620;2024-02-04T07:17:02;96113.00;;;24.94;33.67
22389;BME280;11362;48.102;11.620;2024-02-04T07:19:28;96092.72;;;24.97;33.38
22389;BME280;11362;48.102;11.620;2024-02-04T07:21:54;96108.19;;;24.98;33.80
22389;BME280;11362;48.102;11.620;2024-02-04T07:24:19;96094.72;;;24.97;33.77
22389;BME280;11362;48.102;11.620;2024-02-04T07:26:45;96097.88;;;24.99;33.79
22389;BME280;11362;48.102;11.620;2024-02-04T07:29:12;96089.94;;;24.97;33.93
22389;BME280;11362;48.102;11.620;2024-02-04T07:31:38;96098.66;;;24.99;33.83
22389;BME280;11362;48.102;11.620;2024-02-04T07:34:04;96098.28;;;24.97;33.84
22389;BME280;11362;48.102;11.620;2024-02-04T07:36:29;96109.38;;;24.97;34.16
22389;BME280;11362;48.102;11.620;2024-02-04T07:38:55;96116.94;;;25.00;33.89
22389;BME280;11362;48.102;11.620;2024-02-04T07:41:20;96102.59;;;25.02;34.43
22389;BME280;11362;48.102;11.620;2024-02-04T07:43:46;96105.00;;;25.03;35.35
22389;BME280;11362;48.102;11.620;2024-02-04T07:46:11;96100.63;;;25.06;35.35
22389;BME280;11362;48.102;11.620;2024-02-04T07:48:37;96096.63;;;25.07;35.14
22389;BME280;11362;48.102;11.620;2024-02-04T07:51:02;96098.59;;;25.06;35.14
22389;BME280;11362;48.102;11.620;2024-02-04T07:53:28;96097.84;;;25.06;35.26
22389;BME280;11362;48.102;11.620;2024-02-04T07:55:53;96085.50;;;25.07;35.30
22389;BME280;11362;48.102;11.620;2024-02-04T07:58:19;96090.66;;;25.08;35.52
22389;BME280;11362;48.102;11.620;2024-02-04T08:00:44;96091.03;;;25.10;35.49
22389;BME280;11362;48.102;11.620;2024-02-04T08:03:10;96096.97;;;25.12;35.21
22389;BME280;11362;48.102;11.620;2024-02-04T08:05:35;96094.22;;;25.09;35.41
22389;BME280;11362;48.102;11.620;2024-02-04T08:08:01;96093.44;;;25.08;35.23
22389;BME280;11362;48.102;11.620;2024-02-04T08:10:26;96083.91;;;25.09;35.22
22389;BME280;11362;48.102;11.620;2024-02-04T08:12:52;96090.25;;;25.10;35.39
22389;BME280;11362;48.102;11.620;2024-02-04T08:15:18;96100.97;;;25.11;35.39
22389;BME280;11362;48.102;11.620;2024-02-04T08:17:43;96103.75;;;25.11;34.99
22389;BME280;11362;48.102;11.620;2024-02-04T08:20:09;96105.75;;;25.11;35.13
22389;BME280;11362;48.102;11.620;2024-02-04T08:22:35;96110.13;;;25.12;35.13
22389;BME280;11362;48.102;11.620;2024-02-04T08:25:01;96104.13;;;25.13;35.43
22389;BME280;11362;48.102;11.620;2024-02-04T08:27:26;96105.72;;;25.14;35.61
22389;BME280;11362;48.102;11.620;2024-02-04T08:29:52;96095.75;;;25.17;36.02
22389;BME280;11362;48.102;11.620;2024-02-04T08:32:17;96092.97;;;25.17;36.75
22389;BME280;11362;48.102;11.620;2024-02-04T08:34:43;96097.75;;;25.16;36.39
22389;BME280;11362;48.102;11.620;2024-02-04T08:37:08;96096.97;;;25.16;36.66
22389;BME280;11362;48.102;11.620;2024-02-04T08:39:34;96102.13;;;25.17;36.65
22389;BME280;11362;48.102;11.620;2024-02-04T08:41:59;96123.16;;;25.18;36.44
22389;BME280;11362;48.102;11.620;2024-02-04T08:44:25;96116.00;;;25.21;36.23
22389;BME280;11362;48.102;11.620;2024-02-04T08:46:50;96108.88;;;25.20;35.95
22389;BME280;11362;48.102;11.620;2024-02-04T08:49:16;96113.63;;;25.19;35.90
22389;BME280;11362;48.102;11.620;2024-02-04T08:51:41;96098.13;;;25.18;35.93
22389;BME280;11362;48.102;11.620;2024-02-04T08:54:07;96096.56;;;25.17;35.82
22389;BME280;11362;48.102;11.620;2024-02-04T08:56:32;96101.75;;;25.15;35.62
22389;BME280;11362;48.102;11.620;2024-02-04T08:58:58;96096.19;;;25.15;35.62
22389;BME280;11362;48.102;11.620;2024-02-04T09:01:23;96076.28;;;25.17;35.39
22389;BME280;11362;48.102;11.620;2024-02-04T09:03:48;96069.97;;;25.16;35.30
22389;BME280;11362;48.102;11.620;2024-02-04T09:06:14;96067.56;;;25.15;35.17
22389;BME280;11362;48.102;11.620;2024-02-04T09:08:39;96035.00;;;25.15;34.95
22389;BME280;11362;48.102;11.620;2024-02-04T09:11:05;96027.88;;;25.14;34.98
22389;BME280;11362;48.102;11.620;2024-02-04T09:13:30;96033.44;;;25.14;35.12
22389;BME280;11362;48.102;11.620;2024-02-04T09:15:55;96032.63;;;25.14;35.09
22389;BME280;11362;48.102;11.620;2024-02-04T09:18:21;96024.28;;;25.14;35.03
22389;BME280;11362;48.102;11.620;2024-02-04T09:20:46;96024.69;;;25.12;34.81
22389;BME280;11362;48.102;11.620;2024-02-04T09:23:12;96025.09;;;25.14;34.98
22389;BME280;11362;48.102;11.620;2024-02-04T09:25:37;96046.91;;;25.16;35.09
22389;BME280;11362;48.102;11.620;2024-02-04T09:28:03;96046.50;;;25.17;35.00
22389;BME280;11362;48.102;11.620;2024-02-04T09:30:29;96037.78;;;25.15;35.00
22389;BME280;11362;48.102;11.620;2024-02-04T09:32:55;96035.00;;;25.15;35.24
22389;BME280;11362;48.102;11.620;2024-02-04T09:35:20;96046.13;;;25.15;35.34
22389;BME280;11362;48.102;11.620;2024-02-04T09:37:46;96040.56;;;25.15;35.65
22389;BME280;11362;48.102;11.620;2024-02-04T09:40:12;96035.78;;;25.16;35.45
22389;BME280;11362;48.102;11.620;2024-02-04T09:42:37;96044.53;;;25.18;35.71
22389;BME280;11362;48.102;11.620;2024-02-04T09:45:04;96040.56;;;25.15;35.43
22389;BME280;11362;48.102;11.620;2024-02-04T09:47:30;96044.53;;;25.18;35.77
22389;BME280;11362;48.102;11.620;2024-02-04T09:49:57;96049.69;;;25.16;35.58
22389;BME280;11362;48.102;11.620;2024-02-04T09:52:32;96048.09;;;25.18;35.96
22389;BME280;11362;48.102;11.620;2024-02-04T09:55:02;96048.09;;;25.18;35.97
22389;BME280;11362;48.102;11.620;2024-02-04T09:57:29;96051.25;;;25.20;36.46
22389;BME280;11362;48.102;11.620;2024-02-04T09:59:54;96053.63;;;25.22;37.11
22389;BME280;11362;48.102;11.620;2024-02-04T10:02:20;96060.41;;;25.24;37.31
22389;BME280;11362;48.102;11.620;2024-02-04T10:04:46;96070.31;;;25.25;37.70
22389;BME280;11362;48.102;11.620;2024-02-04T10:07:11;96073.09;;;25.25;37.77
22389;BME280;11362;48.102;11.620;2024-02-04T10:09:37;96084.59;;;25.27;37.25
22389;BME280;11362;48.102;11.620;2024-02-04T10:12:03;96090.56;;;25.29;37.34
22389;BME280;11362;48.102;11.620;2024-02-04T10:14:28;96090.56;;;25.29;37.76
22389;BME280;11362;48.102;11.620;2024-02-04T10:16:54;96096.50;;;25.31;37.81
22389;BME280;11362;48.102;11.620;2024-02-04T10:19:19;96097.28;;;25.32;37.48
22389;BME280;11362;48.102;11.620;2024-02-04T10:21:44;96079.81;;;25.31;37.60
22389;BME280;11362;48.102;11.620;2024-02-04T10:24:10;96090.13;;;25.31;37.32
22389;BME280;11362;48.102;11.620;2024-02-04T10:26:35;96088.16;;;25.31;37.88
22389;BME280;11362;48.102;11.620;2024-02-04T10:29:01;96085.75;;;25.33;37.59
22389;BME280;11362;48.102;11.620;2024-02-04T10:31:26;96082.59;;;25.31;37.53
22389;BME280;11362;48.102;11.620;2024-02-04T10:33:52;96073.03;;;25.32;37.62
22389;BME280;11362;48.102;11.620;2024-02-04T10:36:18;96069.88;;;25.30;37.63
22389;BME280;11362;48.102;11.620;2024-02-04T10:38:43;96071.44;;;25.35;37.58
22389;BME280;11362;48.102;11.620;2024-02-04T10:41:14;96063.88;;;25.35;37.68
22389;BME280;11362;48.102;11.620;2024-02-04T10:43:42;96061.91;;;25.32;38.54
22389;BME280;11362;48.102;11.620;2024-02-04T10:46:22;96071.84;;;25.33;38.71
22389;BME280;11362;48.102;11.620;2024-02-04T10:48:52;96050.34;;;25.37;40.44
22389;BME280;11362;48.102;11.620;2024-02-04T10:51:24;96051.09;;;25.41;41.59
22389;BME280;11362;48.102;11.620;2024-02-04T10:53:51;96045.94;;;25.43;41.59
22389;BME280;11362;48.102;11.620;2024-02-04T10:56:26;96041.97;;;25.44;40.99
22389;BME280;11362;48.102;11.620;2024-02-04T10:58:55;96038.78;;;25.42;40.88
22389;BME280;11362;48.102;11.620;2024-02-04T11:01:22;96038.75;;;25.46;39.73
22389;BME280;11362;48.102;11.620;2024-02-04T11:03:48;96041.13;;;25.47;39.34
22389;BME280;11362;48.102;11.620;2024-02-04T11:06:14;96003.00;;;25.44;39.42
22389;BME280;11362;48.102;11.620;2024-02-04T11:08:40;96007.75;;;25.47;38.88
22389;BME280;11362;48.102;11.620;2024-02-04T11:11:06;96020.47;;;25.45;38.50
22389;BME280;11362;48.102;11.620;2024-02-04T11:13:31;96039.19;;;25.44;38.33
22389;BME280;11362;48.102;11.620;2024-02-04T11:15:58;96038.75;;;25.46;37.90
22389;BME280;11362;48.102;11.620;2024-02-04T11:22:10;96013.28;;;25.51;37.20
22389;BME280;11362;48.102;11.620;2024-02-04T11:24:44;96014.09;;;25.48;37.18
22389;BME280;11362;48.102;11.620;2024-02-04T11:27:15;96003.75;;;25.48;36.92
22389;BME280;11362;48.102;11.620;2024-02-04T11:29:41;95998.16;;;25.52;37.04
22389;BME280;11362;48.102;11.620;2024-02-04T11:32:06;95989.41;;;25.53;36.73
22389;BME280;11362;48.102;11.620;2024-02-04T11:34:33;95989.03;;;25.51;36.40
22389;BME280;11362;48.102;11.620;2024-02-04T11:36:58;95979.16;;;25.47;36.42
22389;BME280;11362;48.102;11.620;2024-02-04T11:39:23;95980.69;;;25.51;36.44
22389;BME280;11362;48.102;11.620;2024-02-04T11:41:49;95958.44;;;25.51;36.13
22389;BME280;11362;48.102;11.620;2024-02-04T11:44:25;95954.78;;;25.58;36.00
22389;BME280;11362;48.102;11.620;2024-02-04T11:46:51;95950.41;;;25.57;35.80
22389;BME280;11362;48.102;11.620;2024-02-04T11:49:17;95960.81;;;25.49;35.89
22389;BME280;11362;48.102;11.620;2024-02-04T11:51:47;95968.44;;;25.45;35.95
22389;BME280;11362;48.102;11.620;2024-02-04T11:54:12;95974.78;;;25.42;36.32
22389;BME280;11362;48.102;11.620;2024-02-04T11:56:38;95974.44;;;25.40;36.00
22389;BME280;11362;48.102;11.620;2024-02-04T11:59:04;95971.28;;;25.38;35.81
22389;BME280;11362;48.102;11.620;2024-02-04T12:01:31;95959.34;;;25.38;36.11
22389;BME280;11362;48.102;11.620;2024-02-04T12:03:57;95962.56;;;25.36;35.98
22389;BME280;11362;48.102;11.620;2024-02-04T12:06:22;95953.41;;;25.36;35.83
22389;BME280;11362;48.102;11.620;2024-02-04T12:08:47;95933.16;;;25.35;36.40
22389;BME280;11362;48.102;11.620;2024-02-04T12:11:14;95968.94;;;25.33;36.47
22389;BME280;11362;48.102;11.620;2024-02-04T12:13:40;95958.63;;;25.34;37.12
22389;BME280;11362;48.102;11.620;2024-02-04T12:16:06;95956.19;;;25.36;36.61
22389;BME280;11362;48.102;11.620;2024-02-04T12:18:32;95953.00;;;25.37;37.16
22389;BME280;11362;48.102;11.620;2024-02-04T12:20:57;95946.25;;;25.38;36.91
22389;BME280;11362;48.102;11.620;2024-02-04T12:23:23;95942.66;;;25.38;36.57
22389;BME280;11362;48.102;11.620;2024-02-04T12:25:48;95947.81;;;25.39;36.61
22389;BME280;11362;48.102;11.620;2024-02-04T12:28:14;95945.03;;;25.39;36.85
22389;BME280;11362;48.102;11.620;2024-02-04T12:30:39;95944.25;;;25.39;37.01
22389;BME280;11362;48.102;11.620;2024-02-04T12:33:06;95932.75;;;25.37;36.82
22389;BME280;11362;48.102;11.620;2024-02-04T12:35:31;95935.94;;;25.35;37.10
22389;BME280;11362;48.102;11.620;2024-02-04T12:37:58;95931.16;;;25.36;37.01
22389;BME280;11362;48.102;11.620;2024-02-04T12:40:25;95931.56;;;25.34;37.28
22389;BME280;11362;48.102;11.620;2024-02-04T12:42:54;95920.84;;;25.36;37.32
22389;BME280;11362;48.102;11.620;2024-02-04T12:45:20;95918.06;;;25.36;36.87
22389;BME280;11362;48.102;11.620;2024-02-04T12:47:49;95906.19;;;25.32;37.00